Time;durP1;ratioP1;P1;durP2;ratioP2;P2;SDS_P1;SDS_P2;PMS_P1;PMS_P2;Temp;Humidity;BMP_temperature;BMP_pressure;BME280_temperature;BME280_humidity;BME280_pressure;Samples;Min_cycle;Max_cycle;Signal;HPM_P1;HPM_P2
2022/08/26 00:00:49;;;;;;;12.65;8.65;;;;;;;19.00;100.00;99604.48;1736220;82;21027;-68
2022/08/26 00:03:15;;;;;;;12.43;9.23;;;;;;;19.00;100.00;99605.04;1729061;82;20999;-68
2022/08/26 00:05:42;;;;;;;12.88;9.73;;;;;;;19.00;100.00;99602.28;1736214;82;21028;-68
2022/08/26 00:08:09;;;;;;;10.68;7.87;;;;;;;18.98;100.00;99601.81;1727775;82;21516;-68
2022/08/26 00:10:36;;;;;;;12.63;9.38;;;;;;;19.02;100.00;99602.22;1725124;82;21023;-68
2022/08/26 00:13:03;;;;;;;10.82;8.95;;;;;;;19.01;100.00;99604.72;1728158;82;21047;-68
2022/08/26 00:15:31;;;;;;;12.10;8.90;;;;;;;19.01;100.00;99596.45;1727535;82;21026;-68
2022/08/26 00:17:58;;;;;;;12.30;8.73;;;;;;;19.04;100.00;99597.16;1731685;82;20987;-68
2022/08/26 00:20:27;;;;;;;15.35;8.38;;;;;;;19.14;100.00;99591.84;1730281;82;21050;-70
2022/08/26 00:22:53;;;;;;;11.12;8.35;;;;;;;19.17;100.00;99592.55;1731096;82;21074;-69
2022/08/26 00:25:20;;;;;;;13.48;8.53;;;;;;;19.16;100.00;99590.38;1726811;82;21593;-68
2022/08/26 00:27:47;;;;;;;10.75;7.90;;;;;;;19.15;100.00;99594.27;1728939;82;21026;-68
2022/08/26 00:30:17;;;;;;;13.85;8.78;;;;;;;19.16;100.00;99587.63;1731992;82;21538;-68
2022/08/26 00:32:45;;;;;;;13.72;8.33;;;;;;;19.20;100.00;99589.94;1735877;82;21035;-68
2022/08/26 00:35:12;;;;;;;14.03;9.33;;;;;;;19.19;100.00;99583.38;1730733;82;21027;-68
2022/08/26 00:37:39;;;;;;;13.00;8.58;;;;;;;19.15;100.00;99579.66;1728226;82;21638;-68
2022/08/26 00:40:11;;;;;;;14.20;9.40;;;;;;;19.15;100.00;99581.86;1736311;82;21054;-69
2022/08/26 00:42:38;;;;;;;14.13;8.03;;;;;;;19.19;100.00;99583.38;1735985;82;20967;-68
2022/08/26 00:45:05;;;;;;;13.80;9.65;;;;;;;19.16;100.00;99582.11;1729473;82;21161;-68
2022/08/26 00:47:36;;;;;;;11.28;8.20;;;;;;;19.15;100.00;99580.48;1733659;82;21455;-69
2022/08/26 00:50:10;;;;;;;12.95;8.30;;;;;;;19.17;100.00;99575.99;1727568;82;21006;-69
2022/08/26 00:52:36;;;;;;;15.30;9.18;;;;;;;19.18;100.00;99583.14;1733056;82;21439;-69
2022/08/26 00:55:22;;;;;;;13.05;8.68;;;;;;;19.11;100.00;99578.14;1730668;82;20991;-69
2022/08/26 00:57:49;;;;;;;15.60;9.30;;;;;;;19.14;100.00;99580.80;1731517;82;21893;-68
2022/08/26 01:00:20;;;;;;;11.80;8.58;;;;;;;19.14;100.00;99576.09;1746319;82;21637;-68
2022/08/26 01:02:47;;;;;;;11.83;8.73;;;;;;;19.11;100.00;99577.33;1737614;82;20971;-68
2022/08/26 01:05:14;;;;;;;13.08;8.73;;;;;;;19.07;100.00;99573.05;1732375;82;21102;-68
2022/08/26 01:07:41;;;;;;;11.83;8.70;;;;;;;19.12;100.00;99574.25;1736566;82;20932;-68
2022/08/26 01:10:15;;;;;;;13.05;8.15;;;;;;;19.18;100.00;99568.77;1738210;82;21055;-68
2022/08/26 01:12:45;;;;;;;10.58;8.08;;;;;;;19.16;100.00;99564.73;1736840;82;20987;-69
2022/08/26 01:15:19;;;;;;;12.07;8.48;;;;;;;19.13;100.00;99567.57;1737695;82;21019;-68
2022/08/26 01:17:46;;;;;;;11.63;8.60;;;;;;;19.12;100.00;99565.97;1739702;82;21404;-68
2022/08/26 01:20:38;;;;;;;15.13;8.80;;;;;;;19.17;100.00;99574.61;1729063;82;21015;-68
2022/08/26 01:23:08;;;;;;;11.83;8.33;;;;;;;19.20;100.00;99568.45;1704893;82;20999;-68
2022/08/26 01:25:40;;;;;;;10.58;7.75;;;;;;;19.18;100.00;99567.39;1733917;81;21046;-69
2022/08/26 01:28:14;;;;;;;10.88;7.90;;;;;;;19.17;100.00;99569.09;1737088;82;21066;-68
2022/08/26 01:30:41;;;;;;;13.03;8.90;;;;;;;19.18;100.00;99569.34;1730054;82;21065;-69
2022/08/26 01:33:11;;;;;;;13.45;8.50;;;;;;;19.14;100.00;99569.20;1736527;82;21030;-68
2022/08/26 01:35:38;;;;;;;15.53;9.08;;;;;;;19.13;100.00;99568.95;1736254;82;21082;-67
2022/08/26 01:38:04;;;;;;;13.83;8.40;;;;;;;19.14;100.00;99566.44;1726921;82;21019;-68
2022/08/26 01:40:35;;;;;;;12.68;8.35;;;;;;;19.16;100.00;99562.80;1732204;82;21067;-69
2022/08/26 01:43:02;;;;;;;13.32;8.78;;;;;;;19.11;100.00;99565.72;1703081;82;20983;-67
2022/08/26 01:45:30;;;;;;;9.80;7.83;;;;;;;19.06;100.00;99556.84;1732188;82;21039;-68
2022/08/26 01:47:57;;;;;;;13.38;8.78;;;;;;;19.09;100.00;99556.17;1731093;82;21498;-68
2022/08/26 01:50:27;;;;;;;12.53;8.30;;;;;;;19.05;100.00;99555.22;1733541;82;21035;-67
2022/08/26 01:52:54;;;;;;;12.07;8.40;;;;;;;18.99;100.00;99559.31;1740213;81;20972;-68
2022/08/26 01:55:21;;;;;;;11.45;8.50;;;;;;;18.95;100.00;99559.16;1732607;82;21110;-68
2022/08/26 01:57:48;;;;;;;15.38;8.65;;;;;;;18.97;100.00;99550.53;1705070;82;20999;-69
2022/08/26 02:00:15;;;;;;;12.58;8.80;;;;;;;18.96;100.00;99546.15;1737936;82;21585;-69
2022/08/26 02:02:43;;;;;;;13.55;8.20;;;;;;;18.93;100.00;99546.25;1738547;81;21019;-69
2022/08/26 02:05:14;;;;;;;11.95;8.60;;;;;;;18.86;100.00;99550.91;1736297;82;21042;-67
2022/08/26 02:07:40;;;;;;;10.18;8.55;;;;;;;18.89;100.00;99550.81;1737463;82;20991;-68
2022/08/26 02:10:08;;;;;;;13.15;8.80;;;;;;;18.89;100.00;99552.19;1729125;82;21506;-69
2022/08/26 02:12:35;;;;;;;14.47;8.50;;;;;;;18.85;100.00;99547.91;1732961;82;21066;-67
2022/08/26 02:15:05;;;;;;;14.18;8.80;;;;;;;18.83;100.00;99541.92;1725073;82;21065;-68
2022/08/26 02:17:38;;;;;;;13.60;8.80;;;;;;;18.82;100.00;99538.92;1730898;82;21047;-68
2022/08/26 02:20:07;;;;;;;13.25;8.88;;;;;;;18.77;100.00;99542.44;1731004;82;21624;-68
2022/08/26 02:22:35;;;;;;;12.93;8.30;;;;;;;18.75;100.00;99537.25;1745032;82;21011;-68
2022/08/26 02:25:21;;;;;;;14.13;8.70;;;;;;;18.76;100.00;99538.05;1743232;82;21047;-68
2022/08/26 02:27:48;;;;;;;12.33;8.38;;;;;;;18.70;100.00;99544.91;1736160;82;21015;-68
2022/08/26 02:30:25;;;;;;;12.30;8.50;;;;;;;18.63;100.00;99544.60;1718866;82;21105;-69
2022/08/26 02:32:53;;;;;;;15.50;8.90;;;;;;;18.61;100.00;99538.02;1734185;82;20996;-67
2022/08/26 02:35:21;;;;;;;11.68;8.80;;;;;;;18.61;100.00;99539.97;1738279;82;21043;-69
2022/08/26 02:37:49;;;;;;;14.35;9.28;;;;;;;18.54;100.00;99539.09;1736578;82;21031;-68
2022/08/26 02:40:20;;;;;;;11.12;8.30;;;;;;;18.49;100.00;99543.96;1731968;82;21534;-68
2022/08/26 02:42:47;;;;;;;14.03;8.90;;;;;;;18.49;100.00;99546.72;1734290;82;20995;-69
2022/08/26 02:45:13;;;;;;;12.53;8.55;;;;;;;18.51;100.00;99547.22;1736255;82;21636;-69
2022/08/26 02:47:40;;;;;;;12.82;8.70;;;;;;;18.48;100.00;99546.47;1732897;82;21011;-68
2022/08/26 02:50:06;;;;;;;13.90;9.03;;;;;;;18.37;100.00;99544.63;1690985;84;21061;-69
2022/08/26 02:52:33;;;;;;;13.48;9.35;;;;;;;18.43;100.00;99551.58;1727712;82;21562;-68
2022/08/26 02:54:59;;;;;;;14.47;9.15;;;;;;;18.48;100.00;99554.17;1728389;82;21345;-70
2022/08/26 02:57:26;;;;;;;13.88;9.18;;;;;;;18.47;100.00;99549.79;1734505;82;20967;-69
2022/08/26 02:59:52;;;;;;;13.83;8.40;;;;;;;18.45;100.00;99549.89;1731915;82;21033;-69
2022/08/26 03:02:20;;;;;;;11.33;8.35;;;;;;;18.43;100.00;99558.47;1727544;82;21023;-70
2022/08/26 03:04:46;;;;;;;13.72;9.25;;;;;;;18.45;100.00;99559.53;1732187;82;21050;-68
2022/08/26 03:07:12;;;;;;;15.90;9.10;;;;;;;18.42;100.00;99560.19;1735284;82;21475;-68
2022/08/26 03:09:39;;;;;;;11.90;8.60;;;;;;;18.39;100.00;99561.64;1733851;82;21022;-68
2022/08/26 03:12:06;;;;;;;14.50;9.00;;;;;;;18.42;100.00;99567.08;1727551;82;21193;-69
2022/08/26 03:14:32;;;;;;;12.05;8.83;;;;;;;18.45;100.00;99560.34;1739667;81;21031;-68
2022/08/26 03:16:59;;;;;;;10.60;8.13;;;;;;;18.43;100.00;99557.09;1732735;82;21606;-68
2022/08/26 03:19:25;;;;;;;;;;;;;;;18.39;100.00;99554.75;1740491;82;21042;-68
2022/08/26 03:21:52;;;;;;;13.28;9.10;;;;;;;18.39;100.00;99561.64;1726388;82;20160;-68
2022/08/26 03:24:19;;;;;;;11.93;8.43;;;;;;;18.37;100.00;99562.55;1738047;82;21339;-68
2022/08/26 03:26:46;;;;;;;11.53;8.15;;;;;;;18.36;100.00;99565.05;1733045;82;21659;-70
2022/08/26 03:31:59;;;;;;;13.35;8.33;;;;;;;18.33;100.00;99560.20;1742930;82;20121;-68
2022/08/26 03:34:25;;;;;;;10.18;7.90;;;;;;;18.30;100.00;99558.10;1736425;82;21046;-67
2022/08/26 03:36:51;;;;;;;;;;;;;;;18.31;100.00;99560.55;1744624;82;21067;-68
2022/08/26 03:39:18;;;;;;;15.83;10.47;;;;;;;18.31;100.00;99560.55;1730284;82;20138;-69
2022/08/26 03:41:44;;;;;;;14.33;9.80;;;;;;;18.25;100.00;99557.69;1729634;82;21039;-67
2022/08/26 03:44:10;;;;;;;;;;;;;;;18.29;100.00;99550.39;1736143;82;21082;-68
2022/08/26 03:46:37;;;;;;;19.73;12.63;;;;;;;18.37;100.00;99557.03;1726984;82;20130;-67
2022/08/26 03:49:04;;;;;;;18.37;12.45;;;;;;;18.33;100.00;99563.77;1734193;82;21031;-69
2022/08/26 03:51:33;;;;;;;16.32;12.37;;;;;;;18.33;100.00;99562.39;1732838;82;21070;-67
2022/08/26 03:54:01;;;;;;;17.37;12.53;;;;;;;18.31;100.00;99558.35;1729836;82;21660;-68
2022/08/26 03:56:32;;;;;;;19.57;14.13;;;;;;;18.44;100.00;99564.23;1734210;82;21105;-68
2022/08/26 03:58:59;;;;;;;17.42;12.78;;;;;;;18.53;100.00;99561.50;1735057;82;21034;-68
2022/08/26 04:01:26;;;;;;;16.55;12.03;;;;;;;18.57;100.00;99563.81;1732315;82;21046;-68
2022/08/26 04:03:57;;;;;;;20.17;13.85;;;;;;;18.61;100.00;99559.27;1742431;82;21114;-68
2022/08/26 04:06:31;;;;;;;11.70;9.98;;;;;;;18.68;100.00;99555.43;1731523;82;21086;-67
2022/08/26 04:09:00;;;;;;;17.23;12.15;;;;;;;18.81;100.00;99548.92;1735511;82;21580;-68
2022/08/26 04:11:30;;;;;;;13.13;10.63;;;;;;;18.93;100.00;99555.09;1738315;82;21075;-68
2022/08/26 04:13:58;;;;;;;13.25;9.63;;;;;;;19.01;100.00;99555.06;1734131;81;21122;-68
2022/08/26 04:16:26;;;;;;;14.70;9.10;;;;;;;19.12;100.00;99550.80;1719086;82;21373;-69
2022/08/26 04:18:52;;;;;;;15.70;8.80;;;;;;;19.25;100.00;99550.31;1729954;82;21071;-69
2022/08/26 04:21:19;;;;;;;12.58;8.25;;;;;;;19.36;100.00;99557.88;1717955;82;21056;-70
2022/08/26 04:23:45;;;;;;;13.48;8.78;;;;;;;19.48;100.00;99553.05;1724971;82;21538;-68
2022/08/26 04:26:12;;;;;;;11.73;8.08;;;;;;;19.60;100.00;99549.55;1715728;82;21063;-68
2022/08/26 04:28:39;;;;;;;12.93;7.65;;;;;;;19.72;100.00;99539.39;1718589;82;20996;-68
2022/08/26 04:31:11;;;;;;;16.60;7.83;;;;;;;19.86;100.00;99539.12;1721228;82;21111;-67
2022/08/26 04:33:41;;;;;;;13.18;8.40;;;;;;;19.97;100.00;99536.75;1700096;82;21315;-69
2022/08/26 04:36:08;;;;;;;11.22;7.42;;;;;;;20.08;100.00;99531.05;1724134;82;21066;-69
2022/08/26 04:38:34;;;;;;;13.58;8.15;;;;;;;20.15;100.00;99527.97;1719677;82;21130;-70
2022/08/26 04:41:02;;;;;;;12.98;7.40;;;;;;;20.27;100.00;99531.33;1716068;82;21082;-72
2022/08/26 04:43:29;;;;;;;12.05;7.83;;;;;;;20.38;100.00;99526.20;1718250;82;20992;-68
2022/08/26 04:45:58;;;;;;;10.55;7.25;;;;;;;20.50;100.00;99534.55;1713089;82;21051;-69
2022/08/26 04:48:27;;;;;;;12.20;7.35;;;;;;;20.61;100.00;99528.24;1707443;82;21099;-70
2022/08/26 04:50:53;;;;;;;11.33;7.00;;;;;;;20.73;100.00;99523.28;1705595;82;21688;-70
2022/08/26 04:53:20;;;;;;;11.78;7.35;;;;;;;20.81;100.00;99515.46;1721720;82;21169;-72
2022/08/26 04:55:49;;;;;;;8.85;7.00;;;;;;;20.94;100.00;99520.44;1711236;82;21182;-69
2022/08/26 04:58:17;;;;;;;13.88;7.20;;;;;;;21.05;100.00;99521.00;1710074;82;20988;-71
2022/08/26 05:00:48;;;;;;;9.98;7.25;;;;;;;21.17;100.00;99521.61;1716692;82;21166;-71
2022/08/26 05:03:16;;;;;;;10.55;7.17;;;;;;;21.26;100.00;99519.52;1715384;82;21635;-70
2022/08/26 05:05:48;;;;;;;14.10;7.80;;;;;;;21.40;100.00;99513.03;1714957;81;21143;-71
2022/08/26 05:08:16;;;;;;;11.65;7.20;;;;;;;21.53;100.00;99510.49;1721663;82;20996;-70
2022/08/26 05:10:47;;;;;;;13.40;7.08;;;;;;;21.64;100.00;99519.94;1710594;82;21134;-70
2022/08/26 05:13:16;;;;;;;13.40;6.87;;;;;;;21.75;100.00;99509.16;1719582;82;20990;-72
2022/08/26 05:15:43;;;;;;;14.58;7.70;;;;;;;21.92;100.00;99515.02;1716560;81;21082;-71
2022/08/26 05:18:10;;;;;;;15.38;7.40;;;;;;;22.03;100.00;99512.78;1719393;82;21589;-72
2022/08/26 05:20:47;;;;;;;9.10;6.97;;;;;;;22.10;100.00;99517.14;1721606;82;21083;-72
2022/08/26 05:23:15;;;;;;;10.55;6.37;;;;;;;22.19;100.00;99510.85;1721013;82;20996;-73
2022/08/26 05:25:44;;;;;;;12.73;7.30;;;;;;;22.27;100.00;99504.34;1743657;82;21031;-71
2022/08/26 05:28:12;;;;;;;13.50;6.70;;;;;;;22.40;100.00;99502.88;1729191;81;21019;-70
2022/08/26 05:30:39;;;;;;;10.15;6.97;;;;;;;22.55;100.00;99509.03;1716013;82;21059;-72
2022/08/26 05:33:07;;;;;;;10.40;6.60;;;;;;;22.79;100.00;99506.92;1740332;81;21011;-70
2022/08/26 05:35:36;;;;;;;12.82;6.80;;;;;;;22.79;100.00;99506.92;1736984;82;21632;-71
2022/08/26 05:38:06;;;;;;;10.75;7.12;;;;;;;22.85;100.00;99496.34;1731433;82;21914;-73
2022/08/26 05:40:35;;;;;;;13.15;6.58;;;;;;;22.94;100.00;99501.72;1717849;82;21071;-72
2022/08/26 05:43:06;;;;;;;8.73;6.15;;;;;;;23.03;100.00;99500.94;1740334;81;21607;-71
2022/08/26 05:45:32;;;;;;;13.93;6.65;;;;;;;23.20;100.00;99506.14;1729340;82;21130;-72
2022/08/26 05:48:00;;;;;;;12.37;6.78;;;;;;;23.33;100.00;99509.59;1714334;82;21113;-73
2022/08/26 05:50:26;;;;;;;14.30;6.67;;;;;;;23.47;100.00;99504.39;1718856;82;21122;-72
2022/08/26 05:52:53;;;;;;;11.48;6.22;;;;;;;23.62;100.00;99506.33;1741082;82;21039;-72
2022/08/26 05:55:20;;;;;;;13.32;6.80;;;;;;;23.64;100.00;99505.36;1721600;82;21388;-72
2022/08/26 05:57:46;;;;;;;11.15;6.65;;;;;;;23.77;100.00;99505.47;1720942;82;21372;-70
2022/08/26 06:00:14;;;;;;;11.93;6.75;;;;;;;23.87;100.00;99507.66;1723794;82;21122;-70
2022/08/26 06:02:41;;;;;;;13.85;6.97;;;;;;;23.97;100.00;99504.28;1732099;82;20984;-71
2022/08/26 06:05:08;;;;;;;12.47;6.78;;;;;;;24.10;100.00;99511.30;1717389;82;21023;-71
2022/08/26 06:10:20;;;;;;;13.70;6.55;;;;;;;24.27;100.00;99510.87;1725832;82;21031;-71
2022/08/26 06:12:48;;;;;;;11.93;6.50;;;;;;;24.41;100.00;99508.16;1720096;82;21094;-72
2022/08/26 06:15:14;;;;;;;9.65;6.12;;;;;;;24.47;100.00;99508.88;1714070;82;21083;-70
2022/08/26 06:17:41;;;;;;;13.80;6.28;;;;;;;24.59;100.00;99501.72;1705184;82;21027;-69
2022/08/26 06:20:08;;;;;;;11.38;6.58;;;;;;;24.62;100.00;99503.75;1720901;81;21638;-70
2022/08/26 06:25:39;;;;;;;19.60;8.93;;;;;;;24.78;100.00;99513.39;1713324;82;21103;-68
2022/08/26 06:28:06;;;;;;;15.13;5.97;;;;;;;24.92;100.00;99509.48;1709780;82;21007;-70
2022/08/26 06:30:36;;;;;;;15.68;6.00;;;;;;;25.16;100.00;99511.05;1724563;82;21473;-69
2022/08/26 06:33:02;;;;;;;10.75;6.25;;;;;;;25.27;100.00;99513.41;1723000;81;21079;-69
2022/08/26 06:35:29;;;;;;;19.50;8.35;;;;;;;25.40;100.00;99508.44;1721173;82;21107;-70
2022/08/26 06:37:55;;;;;;;19.73;7.67;;;;;;;25.49;100.00;99511.75;1723851;81;21035;-71
2022/08/26 06:40:22;;;;;;;18.00;7.42;;;;;;;25.55;98.75;99511.06;1707875;84;21051;-71
2022/08/26 06:42:48;;;;;;;12.95;6.53;;;;;;;25.62;97.30;99513.95;1712771;81;21578;-70
2022/08/26 06:45:15;;;;;;;34.98;14.85;;;;;;;25.65;94.10;99506.81;1708216;83;21523;-71
2022/08/26 06:47:42;;;;;;;15.40;6.55;;;;;;;25.62;91.17;99512.56;1709388;82;21628;-68
2022/08/26 06:50:08;;;;;;;22.42;6.95;;;;;;;25.59;86.47;99505.55;1736230;82;21558;-69
2022/08/26 06:52:35;;;;;;;14.60;5.92;;;;;;;25.70;81.95;99505.10;1726590;82;21701;-70
2022/08/26 06:55:03;;;;;;;14.28;5.60;;;;;;;25.72;80.67;99504.13;1718104;82;21015;-68
2022/08/26 06:57:31;;;;;;;11.30;6.22;;;;;;;25.84;81.85;99502.50;1726496;82;21582;-70
2022/08/26 06:59:58;;;;;;;11.73;5.92;;;;;;;26.13;79.88;99500.27;1717110;82;21122;-69
2022/08/26 07:02:25;;;;;;;15.10;6.17;;;;;;;26.41;79.13;99497.60;1721227;82;21704;-70
2022/08/26 07:04:52;;;;;;;18.00;6.25;;;;;;;26.57;74.28;99491.20;1719275;81;21098;-70
2022/08/26 07:07:18;;;;;;;14.38;5.67;;;;;;;26.71;72.06;99501.88;1726339;82;21000;-70
2022/08/26 07:09:45;;;;;;;15.90;5.62;;;;;;;26.75;72.35;99492.77;1718510;82;21059;-69
2022/08/26 07:12:12;;;;;;;15.20;6.08;;;;;;;26.77;70.71;99493.97;1726106;82;21831;-70
2022/08/26 07:14:38;;;;;;;15.38;5.83;;;;;;;26.86;71.99;99491.67;1731591;81;21619;-71
2022/08/26 07:17:05;;;;;;;16.60;5.90;;;;;;;26.94;65.63;99498.93;1708438;82;21052;-70
2022/08/26 07:19:32;;;;;;;15.23;5.92;;;;;;;26.92;64.45;99498.53;1710262;82;21609;-73
2022/08/26 07:22:00;;;;;;;14.73;5.97;;;;;;;26.87;64.95;99484.91;1719485;82;21609;-69
2022/08/26 07:24:27;;;;;;;15.32;5.70;;;;;;;26.89;64.62;99476.94;1713134;82;21581;-68
2022/08/26 07:26:55;;;;;;;11.40;5.20;;;;;;;26.89;65.75;99481.74;1704186;82;21055;-69
2022/08/26 07:29:23;;;;;;;12.93;5.40;;;;;;;26.99;68.35;99481.83;1736204;82;21083;-69
2022/08/26 07:31:49;;;;;;;20.82;6.15;;;;;;;27.13;65.95;99479.13;1719796;81;21473;-71
2022/08/26 07:34:16;;;;;;;12.30;5.12;;;;;;;27.28;61.86;99477.83;1707528;82;21448;-69
2022/08/26 07:36:43;;;;;;;14.83;5.17;;;;;;;27.38;61.11;99496.06;1706688;82;21131;-68
2022/08/26 07:39:09;;;;;;;13.03;5.15;;;;;;;27.46;61.07;99470.36;1726630;82;21008;-70
2022/08/26 07:41:37;;;;;;;14.75;6.00;;;;;;;27.78;64.42;99483.91;1724697;81;21428;-71
2022/08/26 07:44:04;;;;;;;16.45;5.08;;;;;;;27.96;64.28;99497.97;1719622;82;21035;-69
2022/08/26 07:46:32;;;;;;;9.45;4.85;;;;;;;28.05;59.98;99484.43;1722178;82;21593;-69
2022/08/26 07:48:58;;;;;;;11.75;4.70;;;;;;;28.05;59.07;99482.44;1712378;82;21012;-69
2022/08/26 07:51:25;;;;;;;13.18;4.80;;;;;;;28.12;58.06;99476.09;1728093;81;21099;-69
2022/08/26 07:53:52;;;;;;;14.65;5.85;;;;;;;28.22;58.31;99483.71;1721085;82;21011;-68
2022/08/26 07:56:18;;;;;;;15.65;4.95;;;;;;;28.27;55.34;99478.33;1714300;81;21062;-69
2022/08/26 07:58:45;;;;;;;19.80;5.60;;;;;;;28.29;54.80;99475.33;1731899;81;21013;-70
2022/08/26 08:01:11;;;;;;;15.80;5.42;;;;;;;28.35;55.99;99472.34;1732118;82;21094;-68
2022/08/26 08:03:39;;;;;;;17.90;5.45;;;;;;;28.49;53.78;99470.16;1718882;82;21003;-68
2022/08/26 08:06:06;;;;;;;14.75;4.97;;;;;;;28.56;55.35;99471.56;1738036;82;22148;-70
2022/08/26 08:08:34;;;;;;;13.25;4.95;;;;;;;28.66;53.27;99473.59;1731688;81;21063;-70
2022/08/26 08:11:01;;;;;;;19.73;5.00;;;;;;;28.66;53.08;99463.80;1727923;82;21083;-69
2022/08/26 08:13:29;;;;;;;18.05;4.92;;;;;;;28.71;52.12;99463.41;1728524;81;22245;-68
2022/08/26 08:15:55;;;;;;;15.80;5.15;;;;;;;28.81;52.29;99471.02;1733234;81;21249;-69
2022/08/26 08:18:22;;;;;;;18.50;5.62;;;;;;;28.98;53.34;99458.22;1705979;82;21079;-69
2022/08/26 08:20:48;;;;;;;17.82;6.08;;;;;;;29.13;50.38;99460.59;1719246;82;21123;-69
2022/08/26 08:23:15;;;;;;;17.05;4.75;;;;;;;29.26;49.92;99455.41;1728879;82;21062;-70
2022/08/26 08:25:41;;;;;;;16.40;4.37;;;;;;;29.26;49.47;99454.57;1712778;82;22290;-70
2022/08/26 08:28:07;;;;;;;15.78;4.67;;;;;;;29.15;48.85;99451.19;1721288;82;21015;-70
2022/08/26 08:30:38;;;;;;;16.97;4.30;;;;;;;29.27;47.01;99456.17;1719447;82;21478;-69
2022/08/26 08:33:04;;;;;;;15.95;4.90;;;;;;;29.41;47.51;99451.34;1735418;82;21007;-68
2022/08/26 08:35:31;;;;;;;14.33;4.92;;;;;;;29.49;46.07;99450.72;1723663;81;21911;-69
2022/08/26 08:37:57;;;;;;;14.83;4.33;;;;;;;29.50;45.61;99440.52;1720293;82;20980;-70
2022/08/26 08:40:24;;;;;;;17.32;4.70;;;;;;;29.76;46.49;99453.22;1713602;82;21102;-71
2022/08/26 08:43:08;;;;;;;15.25;4.47;;;;;;;29.98;47.03;99444.13;1719154;82;21012;-70
2022/08/26 08:45:43;;;;;;;15.75;4.40;;;;;;;30.14;46.62;99443.05;1717905;82;21075;-69
2022/08/26 08:48:24;;;;;;;14.93;4.53;;;;;;;30.11;45.78;99442.48;1692763;82;21505;-70
2022/08/26 08:50:53;;;;;;;14.98;4.65;;;;;;;30.07;46.60;99440.29;1719528;81;21542;-69
2022/08/26 08:53:40;;;;;;;22.95;5.22;;;;;;;30.13;45.12;99442.25;1710932;82;20967;-69
2022/08/26 08:56:27;;;;;;;13.88;3.95;;;;;;;30.16;43.64;99439.82;1724596;81;21566;-69
2022/08/26 08:59:02;;;;;;;15.63;4.60;;;;;;;30.08;43.13;99435.66;1724912;82;21387;-71
2022/08/26 09:01:54;;;;;;;13.55;3.95;;;;;;;30.04;45.75;99433.47;1733199;81;21079;-71
2022/08/26 09:04:39;;;;;;;15.15;3.92;;;;;;;30.11;44.00;99436.23;1706783;84;21633;-70
2022/08/26 09:07:10;;;;;;;15.20;4.50;;;;;;;30.12;42.89;99432.23;1721077;81;21126;-71
2022/08/26 09:09:41;;;;;;;16.57;3.77;;;;;;;30.15;42.17;99426.39;1735112;82;21577;-70
2022/08/26 09:12:22;;;;;;;15.95;3.80;;;;;;;30.13;41.84;99431.63;1691753;82;21114;-70
2022/08/26 09:14:48;;;;;;;10.45;3.22;;;;;;;30.10;41.83;99424.03;1734520;82;21085;-71
2022/08/26 09:17:33;;;;;;;13.48;3.75;;;;;;;30.08;42.01;99422.22;1725893;81;21106;-71
2022/08/26 09:20:15;;;;;;;12.90;3.30;;;;;;;30.07;41.21;99424.25;1720373;82;21024;-70
2022/08/26 09:22:43;;;;;;;11.85;3.40;;;;;;;30.05;41.15;99421.04;1714645;83;21098;-71
2022/08/26 09:25:12;;;;;;;14.50;4.37;;;;;;;30.11;42.00;99421.42;1714275;83;21613;-69
2022/08/26 09:30:26;;;;;;;8.05;3.00;;;;;;;30.37;41.53;99414.41;1794110;79;23019;-70
2022/08/26 09:33:01;;;;;;;9.23;2.95;;;;;;;30.26;42.03;99411.68;1752691;80;21078;-70
2022/08/26 09:35:39;;;;;;;11.97;2.98;;;;;;;30.18;40.12;99404.54;1717217;81;21466;-70
2022/08/26 09:38:21;;;;;;;10.90;3.02;;;;;;;30.08;40.08;99404.78;1712001;81;21065;-70
2022/08/26 09:41:00;;;;;;;8.75;3.10;;;;;;;29.94;40.77;99402.06;1743281;82;21082;-70
2022/08/26 09:43:27;;;;;;;9.58;2.85;;;;;;;29.82;42.75;99404.52;1680912;84;21030;-69
2022/08/26 09:46:15;;;;;;;9.55;3.25;;;;;;;29.81;43.12;99408.52;1666196;84;21018;-69
2022/08/26 09:48:42;;;;;;;9.90;2.95;;;;;;;29.83;42.24;99408.30;1693093;83;21117;-70
2022/08/26 09:51:26;;;;;;;10.95;2.90;;;;;;;29.85;42.72;99407.33;1666850;84;21129;-71
2022/08/26 09:53:56;;;;;;;10.98;2.65;;;;;;;29.88;42.53;99408.52;1686104;85;21169;-70
2022/08/26 09:56:26;;;;;;;8.60;2.98;;;;;;;29.89;41.23;99401.10;1701837;83;21063;-71
2022/08/26 09:58:54;;;;;;;10.65;2.65;;;;;;;29.83;40.13;99403.31;1695076;82;21074;-69
2022/08/26 10:01:40;;;;;;;11.85;2.67;;;;;;;29.73;40.04;99400.73;1691802;84;21021;-69
2022/08/26 10:04:11;;;;;;;8.38;2.77;;;;;;;29.67;39.98;99414.20;1686403;84;21133;-70
2022/08/26 10:06:58;;;;;;;8.75;2.33;;;;;;;29.62;39.83;99409.80;1694589;84;21141;-71
2022/08/26 10:09:25;;;;;;;8.43;1.90;;;;;;;29.63;39.39;99410.00;1692371;84;22180;-70
2022/08/26 10:11:56;;;;;;;9.13;2.08;;;;;;;29.68;38.08;99414.41;1703364;84;21383;-72
2022/08/26 10:14:40;;;;;;;9.33;2.15;;;;;;;29.71;37.37;99412.17;1694000;84;21113;-71
2022/08/26 10:17:12;;;;;;;11.33;1.95;;;;;;;29.70;37.18;99403.56;1645994;84;21122;-71
2022/08/26 10:20:15;;;;;;;9.20;1.82;;;;;;;29.73;36.08;99407.75;1641097;86;22220;-70
2022/08/26 10:22:52;;;;;;;10.18;1.82;;;;;;;29.78;35.05;99399.52;1636381;84;21047;-70
2022/08/26 10:25:27;;;;;;;11.10;2.40;;;;;;;29.76;35.77;99400.55;1684665;85;21058;-70
2022/08/26 10:28:11;;;;;;;9.15;2.60;;;;;;;29.80;36.09;99406.91;1679293;84;21102;-70
2022/08/26 10:30:41;;;;;;;11.20;2.12;;;;;;;29.79;36.01;99396.92;1683757;85;21098;-70
2022/08/26 10:33:13;;;;;;;9.05;1.50;;;;;;;29.82;36.46;99397.50;1686213;83;21110;-73
2022/08/26 10:35:56;;;;;;;6.55;1.80;;;;;;;29.85;34.67;99408.73;1683737;85;21004;-70
2022/08/26 10:38:36;;;;;;;5.50;1.77;;;;;;;29.84;33.66;99400.11;1645427;85;21110;-71
2022/08/26 10:41:13;;;;;;;16.05;1.85;;;;;;;29.81;35.17;99390.28;1681386;85;21150;-70
2022/08/26 10:43:46;;;;;;;;;;;;;;;29.85;33.49;99390.50;1685344;84;21141;-70
2022/08/26 10:46:18;;;;;;;7.45;1.67;;;;;;;29.88;32.69;99388.27;1685875;85;20155;-71
2022/08/26 10:48:55;;;;;;;11.48;1.90;;;;;;;29.87;33.40;99383.86;1671989;83;21719;-71
2022/08/26 10:51:28;;;;;;;9.05;1.70;;;;;;;29.95;32.57;99399.45;1665174;85;21082;-69
2022/08/26 10:54:08;;;;;;;4.22;1.00;;;;;;;29.99;31.40;99403.05;1669684;85;21094;-71
2022/08/26 10:56:59;;;;;;;5.22;1.47;;;;;;;29.98;31.05;99395.02;1658604;84;21015;-70
2022/08/26 10:59:53;;;;;;;6.75;1.65;;;;;;;30.01;30.94;99392.80;1664738;85;21049;-73
2022/08/26 11:02:38;;;;;;;8.03;1.60;;;;;;;30.00;32.41;99387.81;1686438;84;21071;-71
2022/08/26 11:05:22;;;;;;;6.75;1.47;;;;;;;30.03;32.48;99393.20;1676270;85;21390;-71
2022/08/26 11:07:55;;;;;;;10.68;1.95;;;;;;;30.07;32.21;99389.77;1678619;84;21158;-72
2022/08/26 11:10:33;;;;;;;9.78;1.80;;;;;;;30.15;32.50;99391.93;1660863;85;22254;-73
2022/08/26 11:13:02;;;;;;;5.67;1.57;;;;;;;30.18;31.78;99384.89;1670150;84;21711;-75
2022/08/26 11:15:37;;;;;;;5.90;1.32;;;;;;;30.14;31.26;99384.11;1687452;85;21078;-72
2022/08/26 11:18:07;;;;;;;10.23;1.17;;;;;;;30.11;30.94;99388.52;1686691;83;21117;-72
2022/08/26 11:20:38;;;;;;;5.58;1.02;;;;;;;30.16;29.65;99382.28;1686799;84;21416;-72
2022/08/26 11:23:33;;;;;;;4.28;0.80;;;;;;;30.23;28.76;99386.44;1689931;84;21150;-72
2022/08/26 11:26:13;;;;;;;5.00;1.20;;;;;;;30.27;28.67;99387.22;1692439;85;21554;-72
2022/08/26 11:28:47;;;;;;;4.12;1.10;;;;;;;30.25;28.42;99393.27;1684179;83;21706;-72
2022/08/26 11:31:29;;;;;;;5.47;1.05;;;;;;;30.23;28.00;99383.63;1710395;82;21513;-71
2022/08/26 11:34:01;;;;;;;4.75;1.27;;;;;;;30.17;27.38;99379.67;1722127;81;21126;-69
2022/08/26 11:36:46;;;;;;;3.77;1.37;;;;;;;30.03;27.06;99383.37;1683331;84;21046;-70
2022/08/26 11:39:18;;;;;;;4.60;0.95;;;;;;;29.90;27.94;99384.44;1683461;84;21141;-70
2022/08/26 11:41:47;;;;;;;4.12;1.50;;;;;;;29.88;28.20;99379.05;1683466;85;21042;-71
2022/08/26 11:44:26;;;;;;;5.35;1.50;;;;;;;29.93;27.57;99380.84;1681723;85;21067;-70
2022/08/26 11:46:58;;;;;;;7.50;2.02;;;;;;;29.87;28.33;99378.84;1672680;85;21561;-70